createdAt,value
2023-03-30T00:01:21.789Z,13.30
2023-03-30T00:03:50.853Z,10.97
2023-03-30T00:06:23.127Z,13.80
2023-03-30T00:08:57.497Z,13.40
2023-03-30T00:11:28.324Z,11.17
2023-03-30T00:13:57.387Z,15.17
2023-03-30T00:16:26.297Z,11.03
2023-03-30T00:18:55.140Z,9.63
2023-03-30T00:21:23.899Z,12.50
2023-03-30T00:23:52.648Z,9.47
2023-03-30T00:26:22.525Z,10.47
2023-03-30T00:28:52.811Z,9.17
2023-03-30T00:31:21.713Z,9.83
2023-03-30T00:33:50.450Z,9.60
2023-03-30T00:36:19.234Z,10.53
2023-03-30T00:38:49.369Z,10.00
2023-03-30T00:41:18.129Z,12.30
2023-03-30T00:44:05.537Z,10.27
2023-03-30T00:46:34.959Z,9.50
2023-03-30T00:49:07.189Z,9.70
2023-03-30T00:51:39.391Z,10.50
2023-03-30T00:54:13.632Z,9.23
2023-03-30T00:56:42.784Z,9.60
2023-03-30T00:59:13.665Z,10.20
2023-03-30T01:01:43.119Z,9.30
2023-03-30T01:04:12.184Z,10.10
2023-03-30T01:06:43.699Z,9.60
2023-03-30T01:09:13.360Z,9.30
2023-03-30T01:11:43.911Z,8.70
2023-03-30T01:14:16.456Z,9.60
2023-03-30T01:16:53.856Z,9.10
2023-03-30T01:19:58.908Z,10.53
2023-03-30T01:22:50.370Z,8.77
2023-03-30T01:25:47.604Z,8.33
2023-03-30T01:28:41.972Z,8.07
2023-03-30T01:31:36.266Z,9.03
2023-03-30T01:34:31.057Z,8.67
2023-03-30T01:37:37.456Z,8.47
2023-03-30T01:40:13.339Z,8.50
2023-03-30T01:42:50.715Z,9.10
2023-03-30T01:45:29.081Z,10.03
2023-03-30T01:48:07.279Z,8.90
2023-03-30T01:50:40.670Z,9.13
2023-03-30T01:53:16.874Z,8.87
2023-03-30T01:55:50.636Z,8.93
2023-03-30T01:58:25.032Z,7.53
2023-03-30T02:00:55.568Z,8.17
2023-03-30T02:03:28.836Z,7.10
2023-03-30T02:06:04.189Z,8.03
2023-03-30T02:08:36.199Z,8.37
2023-03-30T02:11:07.932Z,8.20
2023-03-30T02:13:39.136Z,7.93
2023-03-30T02:16:13.096Z,7.80
2023-03-30T02:18:41.996Z,7.90
2023-03-30T02:21:10.755Z,12.17
2023-03-30T02:23:45.508Z,9.70
2023-03-30T02:26:16.272Z,8.40
2023-03-30T02:28:45.484Z,7.53
2023-03-30T02:31:15.719Z,7.50
2023-03-30T02:33:59.335Z,10.97
2023-03-30T02:36:52.957Z,8.97
2023-03-30T02:39:34.029Z,9.47
2023-03-30T02:42:35.627Z,8.70
2023-03-30T02:45:20.459Z,9.67
2023-03-30T02:48:02.872Z,9.47
2023-03-30T02:50:39.589Z,10.10
2023-03-30T02:53:14.155Z,9.73
2023-03-30T02:55:51.310Z,9.90
2023-03-30T02:58:27.967Z,9.70
2023-03-30T03:01:01.044Z,12.10
2023-03-30T03:03:35.598Z,8.97
2023-03-30T03:06:06.035Z,8.63
2023-03-30T03:08:37.722Z,12.97
2023-03-30T03:11:07.669Z,7.70
2023-03-30T03:13:39.497Z,8.50
2023-03-30T03:16:12.401Z,9.47
2023-03-30T03:18:42.076Z,8.20
2023-03-30T03:21:13.256Z,8.80
2023-03-30T03:23:42.819Z,8.87
2023-03-30T03:26:12.908Z,9.30
2023-03-30T03:28:43.359Z,8.13
2023-03-30T03:31:12.690Z,9.13
2023-03-30T03:33:42.611Z,8.27
2023-03-30T03:36:12.645Z,18.60
2023-03-30T03:38:41.386Z,18.87
2023-03-30T03:41:10.569Z,13.57
2023-03-30T03:43:39.326Z,10.13
2023-03-30T03:46:09.715Z,9.33
2023-03-30T03:48:38.991Z,8.43
2023-03-30T03:51:08.123Z,8.93
2023-03-30T03:53:37.053Z,7.27
2023-03-30T03:56:05.956Z,9.43
2023-03-30T03:58:34.666Z,7.87
2023-03-30T04:01:04.385Z,20.63
2023-03-30T04:03:34.844Z,11.07
2023-03-30T04:06:03.804Z,8.33
2023-03-30T04:08:34.251Z,10.17
2023-03-30T04:11:08.941Z,8.40
2023-03-30T04:13:38.279Z,8.23
2023-03-30T04:16:07.839Z,8.03
2023-03-30T04:18:38.615Z,9.00
2023-03-30T04:21:13.347Z,12.27
2023-03-30T04:23:45.946Z,8.93
2023-03-30T04:26:15.888Z,10.27
2023-03-30T04:28:44.724Z,9.50
2023-03-30T04:31:13.459Z,9.90
2023-03-30T04:33:51.924Z,8.67
2023-03-30T04:36:21.667Z,10.47
2023-03-30T04:38:59.081Z,9.43
2023-03-30T04:41:33.648Z,10.80
2023-03-30T04:44:04.424Z,9.90
2023-03-30T04:46:35.535Z,9.30
2023-03-30T04:49:08.121Z,9.30
2023-03-30T04:51:37.662Z,9.07
2023-03-30T04:54:06.506Z,9.77
2023-03-30T04:56:35.284Z,9.03
2023-03-30T04:59:04.076Z,10.23
2023-03-30T05:01:32.918Z,10.80
2023-03-30T05:04:01.837Z,9.97
2023-03-30T05:06:32.032Z,9.47
2023-03-30T05:09:00.820Z,10.20
2023-03-30T05:11:29.694Z,9.33
2023-03-30T05:13:58.473Z,10.70
2023-03-30T05:16:27.350Z,8.87
2023-03-30T05:18:56.963Z,10.97
2023-03-30T05:21:25.910Z,11.53
2023-03-30T05:23:56.131Z,11.00
2023-03-30T05:26:25.433Z,8.90
2023-03-30T05:28:54.169Z,10.40
2023-03-30T05:31:23.288Z,9.13
2023-03-30T05:33:52.709Z,9.50
2023-03-30T05:36:21.483Z,9.70
2023-03-30T05:38:50.149Z,10.27
2023-03-30T05:41:20.301Z,10.13
2023-03-30T05:43:49.438Z,10.40
2023-03-30T05:46:19.815Z,11.13
2023-03-30T05:48:48.882Z,11.60
2023-03-30T05:51:17.949Z,9.93
2023-03-30T05:53:46.706Z,13.03
2023-03-30T05:56:17.007Z,10.67
2023-03-30T05:58:47.328Z,12.10
2023-03-30T06:01:16.295Z,9.40
2023-03-30T06:03:45.048Z,11.53
2023-03-30T06:06:14.505Z,10.67
2023-03-30T06:08:43.512Z,10.67
2023-03-30T06:11:14.105Z,10.50
2023-03-30T06:13:42.949Z,12.40
2023-03-30T06:16:14.906Z,11.17
2023-03-30T06:18:43.936Z,11.37
2023-03-30T06:21:13.096Z,10.17
2023-03-30T06:23:43.004Z,11.60
2023-03-30T06:26:12.159Z,10.07
2023-03-30T06:28:41.610Z,11.03
2023-03-30T06:31:12.575Z,9.40
2023-03-30T06:33:42.831Z,12.60
2023-03-30T06:36:15.908Z,11.53
2023-03-30T06:38:45.137Z,10.10
2023-03-30T06:41:15.101Z,10.83
2023-03-30T06:43:44.109Z,10.90
2023-03-30T06:46:15.194Z,9.77
2023-03-30T06:48:45.583Z,10.73
2023-03-30T06:51:15.218Z,10.73
2023-03-30T06:53:44.495Z,10.33
2023-03-30T06:56:13.652Z,9.23
2023-03-30T06:58:42.504Z,9.30
2023-03-30T07:01:12.472Z,11.23
2023-03-30T07:03:41.711Z,10.57
2023-03-30T07:06:12.984Z,9.40
2023-03-30T07:08:41.730Z,10.53
2023-03-30T07:11:10.467Z,13.10
2023-03-30T07:13:39.571Z,11.63
2023-03-30T07:16:09.084Z,10.53
2023-03-30T07:18:37.865Z,10.07
2023-03-30T07:21:07.448Z,11.07
2023-03-30T07:23:37.827Z,10.07
2023-03-30T07:26:06.888Z,10.10
2023-03-30T07:28:39.546Z,9.93
2023-03-30T07:31:10.510Z,10.27
2023-03-30T07:33:39.485Z,11.20
2023-03-30T07:36:09.050Z,9.77
2023-03-30T07:38:39.417Z,9.63
2023-03-30T07:41:12.651Z,11.97
2023-03-30T07:43:41.988Z,9.13
2023-03-30T07:46:12.112Z,8.17
2023-03-30T07:48:41.654Z,8.20
2023-03-30T07:51:12.502Z,9.50
2023-03-30T07:53:43.281Z,8.27
2023-03-30T07:56:12.484Z,9.50
2023-03-30T07:58:41.510Z,7.90
2023-03-30T08:01:11.507Z,7.97
2023-03-30T08:03:41.415Z,7.87
2023-03-30T08:06:11.199Z,7.77
2023-03-30T08:08:44.343Z,7.63
2023-03-30T08:11:15.686Z,8.63
2023-03-30T08:13:44.741Z,7.63
2023-03-30T08:16:17.281Z,8.33
2023-03-30T08:18:50.285Z,8.63
2023-03-30T08:21:19.701Z,8.30
2023-03-30T08:23:52.334Z,8.37
2023-03-30T08:26:21.622Z,7.30
2023-03-30T08:28:53.659Z,9.37
2023-03-30T08:31:22.478Z,9.30
2023-03-30T08:33:51.365Z,8.50
2023-03-30T08:36:21.083Z,8.33
2023-03-30T08:38:51.305Z,8.80
2023-03-30T08:42:01.346Z,8.50
2023-03-30T08:44:38.469Z,8.60
2023-03-30T08:47:11.844Z,13.00
2023-03-30T08:49:48.472Z,9.43
2023-03-30T08:52:24.179Z,8.30
2023-03-30T08:54:55.871Z,8.00
2023-03-30T08:57:39.555Z,6.73
2023-03-30T09:00:23.160Z,6.50
2023-03-30T09:02:59.176Z,6.70
2023-03-30T09:05:32.881Z,7.27
2023-03-30T09:08:08.524Z,6.57
2023-03-30T09:10:44.764Z,5.50
2023-03-30T09:13:18.146Z,5.87
2023-03-30T09:15:52.088Z,6.37
2023-03-30T09:18:24.858Z,8.43
2023-03-30T09:20:56.142Z,6.47
2023-03-30T09:23:25.978Z,6.60
2023-03-30T09:26:05.070Z,10.67
2023-03-30T09:28:38.144Z,5.90
2023-03-30T09:31:11.208Z,6.00
2023-03-30T09:33:47.226Z,6.53
2023-03-30T09:36:18.602Z,6.30
2023-03-30T09:38:49.144Z,5.27
2023-03-30T09:41:54.691Z,5.80
2023-03-30T09:44:34.246Z,5.07
2023-03-30T09:47:03.814Z,5.33
2023-03-30T09:49:40.386Z,4.90
2023-03-30T09:52:20.318Z,5.77
2023-03-30T09:54:49.487Z,5.47
2023-03-30T09:57:29.841Z,5.37
2023-03-30T10:00:23.346Z,5.60
2023-03-30T10:02:58.914Z,6.17
2023-03-30T10:05:29.086Z,4.70
2023-03-30T10:08:00.555Z,4.87
2023-03-30T10:10:35.836Z,5.57
2023-03-30T10:13:08.149Z,4.73
2023-03-30T10:15:44.913Z,7.20
2023-03-30T10:18:26.825Z,5.80
2023-03-30T10:21:01.948Z,9.50
2023-03-30T10:23:33.598Z,7.77
2023-03-30T10:26:04.563Z,5.57
2023-03-30T10:28:36.245Z,4.10
2023-03-30T10:31:16.406Z,7.83
2023-03-30T10:33:46.874Z,4.40
2023-03-30T10:36:18.803Z,5.27
2023-03-30T10:38:48.786Z,5.70
2023-03-30T10:41:24.048Z,5.10
2023-03-30T10:43:55.095Z,4.20
2023-03-30T10:46:27.398Z,7.37
2023-03-30T10:49:11.348Z,4.50
2023-03-30T10:51:50.613Z,6.30
2023-03-30T10:54:27.775Z,4.83
2023-03-30T10:57:00.365Z,7.37
2023-03-30T10:59:48.330Z,7.10
2023-03-30T11:02:36.546Z,5.23
2023-03-30T11:05:13.102Z,6.10
2023-03-30T11:07:47.697Z,5.47
2023-03-30T11:10:22.216Z,6.40
2023-03-30T11:12:56.631Z,11.10
2023-03-30T11:15:29.944Z,6.10
2023-03-30T11:18:08.313Z,5.93
2023-03-30T11:20:42.812Z,5.60
2023-03-30T11:23:24.811Z,6.47
2023-03-30T11:26:03.019Z,6.90
2023-03-30T11:28:55.381Z,5.53
2023-03-30T11:31:50.349Z,6.60
2023-03-30T11:34:29.098Z,7.03
2023-03-30T11:37:03.876Z,8.97
2023-03-30T11:39:36.029Z,6.80
2023-03-30T11:42:13.987Z,8.80
2023-03-30T11:44:44.016Z,6.63
2023-03-30T11:47:39.074Z,7.73
2023-03-30T11:50:25.875Z,6.93
2023-03-30T11:53:14.656Z,7.40
2023-03-30T11:55:58.288Z,9.53
2023-03-30T11:58:36.378Z,6.70
2023-03-30T12:01:37.259Z,9.20
2023-03-30T12:04:11.320Z,6.80
2023-03-30T12:06:44.967Z,8.57
2023-03-30T12:09:29.943Z,9.73
2023-03-30T12:12:07.134Z,7.03
2023-03-30T12:14:51.731Z,8.07
2023-03-30T12:17:47.227Z,12.13
2023-03-30T12:20:37.565Z,9.50
2023-03-30T12:23:18.847Z,7.10
2023-03-30T12:26:04.396Z,9.60
2023-03-30T12:31:19.659Z,7.30
2023-03-30T12:33:50.018Z,8.23
2023-03-30T12:36:38.359Z,14.33
2023-03-30T12:39:26.372Z,7.90
2023-03-30T12:42:04.703Z,12.53
2023-03-30T12:44:41.368Z,8.30
2023-03-30T12:47:42.478Z,11.23
2023-03-30T12:50:24.486Z,8.80
2023-03-30T12:53:13.311Z,7.57
2023-03-30T12:55:51.756Z,10.20
2023-03-30T12:58:43.710Z,7.40
2023-03-30T13:01:23.474Z,9.90
2023-03-30T13:03:54.781Z,7.47
2023-03-30T13:06:28.732Z,8.23
2023-03-30T13:09:04.560Z,7.63
2023-03-30T13:11:47.593Z,11.50
2023-03-30T13:14:29.096Z,9.43
2023-03-30T13:17:20.060Z,8.47
2023-03-30T13:20:28.114Z,7.80
2023-03-30T13:23:17.421Z,6.83
2023-03-30T13:25:50.264Z,6.90
2023-03-30T13:28:38.110Z,6.27
2023-03-30T13:31:21.038Z,7.10
2023-03-30T13:33:56.657Z,5.60
2023-03-30T13:36:31.628Z,7.03
2023-03-30T13:39:12.739Z,6.30
2023-03-30T13:42:04.529Z,5.80
2023-03-30T13:44:50.778Z,6.57
2023-03-30T13:47:39.204Z,6.53
2023-03-30T13:50:15.326Z,6.50
2023-03-30T13:52:48.254Z,6.20
2023-03-30T13:55:22.321Z,6.60
2023-03-30T13:57:55.273Z,6.60
2023-03-30T14:00:40.030Z,7.00
2023-03-30T14:03:32.171Z,7.17
2023-03-30T14:06:06.147Z,8.37
2023-03-30T14:08:41.417Z,6.83
2023-03-30T14:11:16.890Z,6.33
2023-03-30T14:13:47.086Z,5.67
2023-03-30T14:16:23.073Z,6.00
2023-03-30T14:18:52.445Z,5.20
2023-03-30T14:21:24.495Z,5.87
2023-03-30T14:23:54.802Z,4.93
2023-03-30T14:26:26.901Z,5.33
2023-03-30T14:28:58.263Z,7.63
2023-03-30T14:31:28.890Z,5.23
2023-03-30T14:33:57.807Z,4.87
2023-03-30T14:36:28.054Z,5.50
2023-03-30T14:38:57.908Z,4.53
2023-03-30T14:41:28.750Z,5.23
2023-03-30T14:44:00.541Z,3.37
2023-03-30T14:46:39.410Z,5.43
2023-03-30T14:49:09.778Z,4.47
2023-03-30T14:51:40.773Z,4.30
2023-03-30T14:54:14.208Z,4.53
2023-03-30T14:56:44.388Z,4.47
2023-03-30T14:59:14.856Z,5.07
2023-03-30T15:01:45.787Z,4.53
2023-03-30T15:04:19.882Z,4.50
2023-03-30T15:06:49.806Z,4.83
2023-03-30T15:09:20.810Z,6.33
2023-03-30T15:11:54.302Z,5.30
2023-03-30T15:14:24.587Z,5.87
2023-03-30T15:16:57.598Z,4.50
2023-03-30T15:19:31.202Z,5.07
2023-03-30T15:22:03.324Z,4.77
2023-03-30T15:24:35.169Z,4.80
2023-03-30T15:27:08.092Z,4.40
2023-03-30T15:29:37.073Z,4.73
2023-03-30T15:32:15.715Z,3.90
2023-03-30T15:35:03.286Z,4.00
2023-03-30T15:37:33.660Z,4.00
2023-03-30T15:40:02.641Z,5.20
2023-03-30T15:42:33.075Z,3.57
2023-03-30T15:45:10.283Z,3.97
2023-03-30T15:47:41.347Z,3.73
2023-03-30T15:50:14.734Z,3.80
2023-03-30T15:52:47.016Z,3.70
2023-03-30T15:55:22.586Z,3.83
2023-03-30T15:57:54.113Z,5.43
2023-03-30T16:00:26.791Z,4.10
2023-03-30T16:02:58.894Z,4.03
2023-03-30T16:05:32.066Z,3.40
2023-03-30T16:08:01.760Z,3.67
2023-03-30T16:10:32.551Z,3.77
2023-03-30T16:13:02.621Z,4.90
2023-03-30T16:15:33.448Z,3.17
2023-03-30T16:18:04.040Z,3.87
2023-03-30T16:20:38.207Z,4.10
2023-03-30T16:23:08.655Z,4.27
2023-03-30T16:25:45.272Z,8.30
2023-03-30T16:28:18.016Z,4.17
2023-03-30T16:30:49.036Z,4.27
2023-03-30T16:33:19.978Z,5.37
2023-03-30T16:35:48.886Z,4.60
2023-03-30T16:38:19.232Z,3.97
2023-03-30T16:40:52.377Z,4.67
2023-03-30T16:43:21.733Z,4.70
2023-03-30T16:45:51.678Z,6.73
2023-03-30T16:48:22.177Z,5.17
2023-03-30T16:50:53.740Z,4.50
2023-03-30T16:53:23.766Z,5.60
2023-03-30T16:55:53.769Z,5.70
2023-03-30T16:58:23.512Z,7.07
2023-03-30T17:00:56.494Z,5.80
2023-03-30T17:03:26.898Z,5.00
2023-03-30T17:05:56.613Z,5.97
2023-03-30T17:08:27.011Z,5.33
2023-03-30T17:11:03.012Z,5.30
2023-03-30T17:13:34.005Z,6.17
2023-03-30T17:16:03.348Z,5.93
2023-03-30T17:18:36.111Z,5.63
2023-03-30T17:21:06.347Z,6.23
2023-03-30T17:23:37.519Z,6.33
2023-03-30T17:26:07.836Z,4.87
2023-03-30T17:28:38.724Z,7.00
2023-03-30T17:31:11.274Z,6.83
2023-03-30T17:33:43.663Z,6.10
2023-03-30T17:36:17.136Z,6.43
2023-03-30T17:38:47.269Z,7.17
2023-03-30T17:41:19.993Z,9.10
2023-03-30T17:43:50.971Z,7.40
2023-03-30T17:46:26.298Z,7.37
2023-03-30T17:48:59.239Z,8.03
2023-03-30T17:51:28.795Z,6.70
2023-03-30T17:54:01.921Z,7.80
2023-03-30T17:56:32.856Z,6.73
2023-03-30T17:59:04.384Z,7.50
2023-03-30T18:01:36.236Z,7.20
2023-03-30T18:04:09.028Z,8.37
2023-03-30T18:06:41.946Z,7.63
2023-03-30T18:09:18.607Z,8.20
2023-03-30T18:11:56.659Z,7.80
2023-03-30T18:14:29.544Z,8.20
2023-03-30T18:17:06.532Z,6.93
2023-03-30T18:19:40.053Z,7.43
2023-03-30T18:22:10.747Z,10.20
2023-03-30T18:24:40.577Z,7.50
2023-03-30T18:27:12.760Z,8.67
2023-03-30T18:29:43.542Z,8.37
2023-03-30T18:32:15.142Z,7.90
2023-03-30T18:34:47.034Z,8.40
2023-03-30T18:37:16.878Z,9.30
2023-03-30T18:39:50.012Z,8.57
2023-03-30T18:42:23.704Z,9.23
2023-03-30T18:44:54.528Z,9.33
2023-03-30T18:47:25.499Z,9.13
2023-03-30T18:49:59.977Z,10.30
2023-03-30T18:52:32.592Z,10.20
2023-03-30T18:55:04.868Z,9.70
2023-03-30T18:57:35.692Z,9.40
2023-03-30T19:00:12.473Z,14.50
2023-03-30T19:02:42.156Z,10.10
2023-03-30T19:05:17.365Z,8.50
2023-03-30T19:07:52.660Z,10.90
2023-03-30T19:10:32.431Z,6.60
2023-03-30T19:13:07.616Z,5.60
2023-03-30T19:15:38.459Z,7.00
2023-03-30T19:18:09.543Z,6.53
2023-03-30T19:20:43.451Z,4.17
2023-03-30T19:23:15.850Z,4.30
2023-03-30T19:25:49.529Z,5.50
2023-03-30T19:28:21.895Z,3.60
2023-03-30T19:30:54.071Z,4.90
2023-03-30T19:33:28.804Z,4.30
2023-03-30T19:36:01.915Z,7.40
2023-03-30T19:38:31.628Z,4.27
2023-03-30T19:41:04.177Z,4.50
2023-03-30T19:43:36.244Z,5.30
2023-03-30T19:46:09.092Z,4.60
2023-03-30T19:48:39.856Z,5.90
2023-03-30T19:51:15.643Z,4.63
2023-03-30T19:53:45.706Z,4.57
2023-03-30T19:56:16.808Z,5.33
2023-03-30T19:58:46.913Z,8.83
2023-03-30T20:01:16.929Z,5.33
2023-03-30T20:03:47.176Z,5.83
2023-03-30T20:06:18.507Z,4.10
2023-03-30T20:08:49.126Z,3.97
2023-03-30T20:11:18.033Z,4.80
2023-03-30T20:13:48.583Z,4.37
2023-03-30T20:16:22.248Z,4.37
2023-03-30T20:19:01.730Z,6.03
2023-03-30T20:21:34.094Z,6.13
2023-03-30T20:24:03.514Z,4.87
2023-03-30T20:26:33.629Z,5.83
2023-03-30T20:29:23.248Z,6.20
2023-03-30T20:31:58.163Z,4.83
2023-03-30T20:34:30.925Z,4.13
2023-03-30T20:37:02.953Z,3.60
2023-03-30T20:39:36.365Z,5.80
2023-03-30T20:42:11.513Z,6.10
2023-03-30T20:44:41.349Z,4.30
2023-03-30T20:47:12.567Z,3.20
2023-03-30T20:49:43.879Z,3.73
2023-03-30T20:52:17.279Z,5.47
2023-03-30T20:54:46.171Z,4.67
2023-03-30T20:57:16.497Z,4.07
2023-03-30T20:59:48.605Z,4.10
2023-03-30T21:02:19.113Z,6.13
2023-03-30T21:04:48.185Z,10.33
2023-03-30T21:07:18.804Z,3.97
2023-03-30T21:09:47.761Z,4.67
2023-03-30T21:12:16.492Z,4.97
2023-03-30T21:14:46.476Z,5.97
2023-03-30T21:17:15.261Z,4.83
2023-03-30T21:19:44.172Z,5.40
2023-03-30T21:22:12.960Z,4.60
2023-03-30T21:24:43.158Z,2.90
2023-03-30T21:27:14.522Z,3.53
2023-03-30T21:29:45.522Z,3.87
2023-03-30T21:32:14.355Z,4.00
2023-03-30T21:34:43.097Z,4.03
2023-03-30T21:37:11.969Z,4.60
2023-03-30T21:39:41.144Z,4.70
2023-03-30T21:42:11.593Z,6.00
2023-03-30T21:44:40.346Z,4.67
2023-03-30T21:47:09.102Z,6.57
2023-03-30T21:49:40.542Z,5.33
2023-03-30T21:52:09.340Z,5.40
2023-03-30T21:54:39.511Z,4.80
2023-03-30T21:57:08.361Z,4.60
2023-03-30T21:59:38.650Z,7.30
2023-03-30T22:02:07.457Z,3.60
2023-03-30T22:04:36.326Z,4.30
2023-03-30T22:07:05.169Z,3.90
2023-03-30T22:09:33.914Z,5.07
2023-03-30T22:12:03.203Z,4.93
2023-03-30T22:14:32.279Z,4.20
2023-03-30T22:17:02.676Z,4.20
2023-03-30T22:19:32.197Z,5.13
2023-03-30T22:22:01.765Z,4.90
2023-03-30T22:24:30.544Z,5.00
2023-03-30T22:26:59.395Z,4.30
2023-03-30T22:29:28.132Z,3.60
2023-03-30T22:31:58.446Z,3.73
2023-03-30T22:34:28.718Z,7.00
2023-03-30T22:36:57.746Z,4.13
2023-03-30T22:39:26.478Z,5.73
2023-03-30T22:41:55.189Z,3.40
2023-03-30T22:44:23.902Z,3.03
2023-03-30T22:46:53.981Z,2.70
2023-03-30T22:49:25.003Z,3.60
2023-03-30T22:51:55.182Z,3.03
2023-03-30T22:54:24.256Z,4.10
2023-03-30T22:56:52.983Z,2.73
2023-03-30T22:59:21.835Z,4.70
2023-03-30T23:01:50.547Z,3.93
2023-03-30T23:04:19.733Z,3.00
2023-03-30T23:06:48.498Z,3.73
2023-03-30T23:09:21.811Z,4.20
2023-03-30T23:11:51.472Z,4.87
2023-03-30T23:14:24.397Z,3.90
2023-03-30T23:16:54.181Z,4.03
2023-03-30T23:19:25.030Z,3.10
2023-03-30T23:21:54.591Z,3.80
2023-03-30T23:24:24.998Z,4.17
2023-03-30T23:26:53.839Z,3.03
2023-03-30T23:29:22.606Z,3.83
2023-03-30T23:31:52.996Z,3.10
2023-03-30T23:34:22.871Z,4.23
2023-03-30T23:36:53.307Z,2.83
2023-03-30T23:39:26.157Z,2.33
2023-03-30T23:41:55.437Z,4.27
2023-03-30T23:44:24.649Z,3.53
2023-03-30T23:46:53.589Z,3.80
2023-03-30T23:49:22.347Z,3.73
2023-03-30T23:51:52.091Z,3.37
2023-03-30T23:54:21.384Z,5.70
2023-03-30T23:56:57.375Z,4.23
2023-03-30T23:59:26.832Z,4.17
